Time;durP1;ratioP1;P1;durP2;ratioP2;P2;SDS_P1;SDS_P2;PMS_P1;PMS_P2;Temp;Humidity;BMP_temperature;BMP_pressure;BME280_temperature;BME280_humidity;BME280_pressure;Samples;Min_cycle;Max_cycle;Signal;HPM_P1;HPM_P2
2022/03/16 00:01:14;;;;;;;25.13;16.15;;;11.20;99.90;;;;;;5054826;28;20401;-74
2022/03/16 00:03:40;;;;;;;23.95;15.27;;;11.20;99.90;;;;;;5054990;28;20453;-72
2022/03/16 00:06:05;;;;;;;26.55;15.27;;;11.20;99.90;;;;;;5054605;28;20094;-74
2022/03/16 00:08:31;;;;;;;26.17;17.00;;;11.20;99.90;;;;;;5054693;28;20473;-72
2022/03/16 00:10:58;;;;;;;24.50;15.50;;;11.20;99.90;;;;;;5054692;28;20499;-73
2022/03/16 00:13:24;;;;;;;27.35;15.55;;;11.20;99.90;;;;;;5054573;28;20108;-73
2022/03/16 00:15:50;;;;;;;26.85;16.50;;;11.20;99.90;;;;;;5054533;28;20060;-72
2022/03/16 00:18:15;;;;;;;23.13;15.00;;;11.20;99.90;;;;;;5054523;28;20404;-72
2022/03/16 00:20:41;;;;;;;26.27;16.90;;;11.20;99.90;;;;;;5054705;28;20027;-73
2022/03/16 00:23:07;;;;;;;26.77;16.58;;;11.20;99.90;;;;;;5054354;28;20033;-73
2022/03/16 00:25:32;;;;;;;27.95;17.38;;;11.10;99.90;;;;;;5054119;28;20022;-73
2022/03/16 00:27:58;;;;;;;27.55;16.75;;;11.10;99.90;;;;;;5054310;28;20070;-73
2022/03/16 00:30:24;;;;;;;26.60;17.23;;;11.00;99.90;;;;;;5054289;28;20079;-73
2022/03/16 00:32:49;;;;;;;28.70;18.02;;;11.10;99.90;;;;;;5054514;28;20029;-74
2022/03/16 00:35:15;;;;;;;25.02;17.27;;;11.10;99.90;;;;;;5036334;28;20449;-73
2022/03/16 00:37:41;;;;;;;30.08;18.90;;;11.10;99.90;;;;;;5054124;28;20032;-74
2022/03/16 00:40:09;;;;;;;26.85;17.85;;;11.00;99.90;;;;;;5054069;28;20431;-74
2022/03/16 00:42:35;;;;;;;25.52;17.55;;;10.90;99.90;;;;;;5036072;28;20025;-72
2022/03/16 00:45:00;;;;;;;29.60;17.38;;;11.10;99.90;;;;;;5036031;28;20435;-74
2022/03/16 00:47:26;;;;;;;34.88;19.02;;;11.20;99.90;;;;;;5036054;28;20032;-73
2022/03/16 00:49:52;;;;;;;23.77;17.45;;;11.20;99.90;;;;;;5053881;28;20052;-72
2022/03/16 00:52:18;;;;;;;29.48;17.13;;;11.10;99.90;;;;;;5054120;28;20064;-75
2022/03/16 00:54:43;;;;;;;31.80;16.83;;;11.10;99.90;;;;;;5053954;28;20067;-72
2022/03/16 00:57:09;;;;;;;27.15;16.65;;;11.00;99.90;;;;;;5053777;28;20029;-72
2022/03/16 00:59:34;;;;;;;28.58;17.35;;;11.00;99.90;;;;;;5054268;28;20025;-73
2022/03/16 01:02:00;;;;;;;29.10;17.70;;;10.90;99.90;;;;;;5053693;28;20526;-75
2022/03/16 01:04:26;;;;;;;26.08;18.45;;;10.90;99.90;;;;;;5053383;28;20039;-72
2022/03/16 01:06:53;;;;;;;29.67;20.05;;;10.80;99.90;;;;;;5053953;28;20104;-73
2022/03/16 01:09:19;;;;;;;31.92;18.95;;;10.80;99.90;;;;;;5053562;28;20598;-74
2022/03/16 01:11:45;;;;;;;29.85;18.95;;;10.80;99.90;;;;;;5053553;28;20021;-74
2022/03/16 01:14:11;;;;;;;30.10;18.65;;;10.80;99.90;;;;;;5053548;28;20502;-71
2022/03/16 01:16:39;;;;;;;30.02;19.10;;;10.80;99.90;;;;;;5053507;28;20033;-74
2022/03/16 01:19:05;;;;;;;27.55;18.27;;;10.80;99.90;;;;;;5053687;28;20024;-72
2022/03/16 01:21:32;;;;;;;24.45;17.77;;;10.90;99.90;;;;;;5053352;28;20544;-73
2022/03/16 01:23:58;;;;;;;26.95;18.83;;;10.90;99.90;;;;;;5053232;28;20473;-74
2022/03/16 01:26:23;;;;;;;26.48;17.85;;;10.90;99.90;;;;;;5053328;28;20028;-74
2022/03/16 01:28:49;;;;;;;30.77;18.17;;;10.80;99.90;;;;;;5053563;28;20013;-72
2022/03/16 01:31:15;;;;;;;25.40;18.23;;;10.80;99.90;;;;;;5053290;28;20474;-74
2022/03/16 01:33:40;;;;;;;25.30;17.08;;;10.60;99.90;;;;;;5053770;28;20029;-73
2022/03/16 01:36:06;;;;;;;28.35;17.92;;;10.50;99.90;;;;;;5052581;28;20037;-72
2022/03/16 01:38:32;;;;;;;27.95;18.85;;;10.40;99.90;;;;;;5052958;28;20028;-73
2022/03/16 01:40:57;;;;;;;31.02;20.08;;;10.40;99.90;;;;;;5053146;28;20029;-71
2022/03/16 01:43:24;;;;;;;27.50;19.35;;;10.40;99.90;;;;;;5053060;28;20148;-73
2022/03/16 01:45:51;;;;;;;30.52;20.40;;;10.50;99.90;;;;;;5053048;28;20024;-73
2022/03/16 01:48:18;;;;;;;26.88;19.00;;;10.50;99.90;;;;;;5053311;28;20024;-73
2022/03/16 01:50:44;;;;;;;28.08;18.88;;;10.50;99.90;;;;;;5053595;28;20083;-73
2022/03/16 01:53:11;;;;;;;31.65;21.33;;;10.50;99.90;;;;;;5053010;28;20104;-74
2022/03/16 01:55:39;;;;;;;28.35;18.38;;;10.50;99.90;;;;;;5053505;28;20049;-72
2022/03/16 01:58:05;;;;;;;27.80;18.55;;;10.40;99.90;;;;;;5052986;28;20100;-72
2022/03/16 02:00:31;;;;;;;24.00;18.00;;;10.50;99.90;;;;;;5052730;28;20120;-74
2022/03/16 02:02:57;;;;;;;26.60;17.88;;;10.50;99.90;;;;;;5052855;28;20074;-72
2022/03/16 02:05:22;;;;;;;29.10;19.40;;;10.50;99.90;;;;;;5052554;28;20493;-72
2022/03/16 02:07:49;;;;;;;24.85;18.70;;;10.50;99.90;;;;;;5052923;28;20485;-73
2022/03/16 02:10:15;;;;;;;34.25;19.42;;;10.50;99.90;;;;;;5053135;28;20059;-73
2022/03/16 02:12:46;;;;;;;23.45;18.10;;;10.50;99.90;;;;;;5052832;28;20053;-73
2022/03/16 02:15:12;;;;;;;27.75;17.63;;;10.50;99.90;;;;;;5053374;28;20036;-74
2022/03/16 02:17:38;;;;;;;28.63;19.58;;;10.40;99.90;;;;;;5053073;28;20021;-74
2022/03/16 02:20:05;;;;;;;32.50;18.42;;;10.40;99.90;;;;;;5052812;28;20049;-73
2022/03/16 02:22:34;;;;;;;28.02;17.88;;;10.30;99.90;;;;;;5052692;28;20071;-73
2022/03/16 02:25:00;;;;;;;28.67;19.73;;;10.30;99.90;;;;;;5052742;28;20032;-71
2022/03/16 02:27:26;;;;;;;28.98;20.15;;;10.30;99.90;;;;;;5052684;28;20385;-72
2022/03/16 02:29:51;;;;;;;31.00;19.77;;;10.20;99.90;;;;;;5052958;28;20021;-74
2022/03/16 02:32:17;;;;;;;27.65;17.80;;;10.20;99.90;;;;;;5052956;28;20025;-72
2022/03/16 02:34:43;;;;;;;29.77;19.05;;;10.10;99.90;;;;;;5052639;28;20036;-72
2022/03/16 02:37:08;;;;;;;32.08;19.20;;;10.00;99.90;;;;;;5052894;28;20040;-74
2022/03/16 02:39:34;;;;;;;26.92;19.40;;;10.10;99.90;;;;;;5052581;28;20501;-73
2022/03/16 02:42:00;;;;;;;29.35;19.45;;;10.10;99.90;;;;;;5052814;28;20100;-73
2022/03/16 02:44:26;;;;;;;25.60;18.17;;;10.10;99.90;;;;;;5052515;28;20025;-76
2022/03/16 02:46:51;;;;;;;26.85;18.52;;;10.10;99.90;;;;;;5053087;28;20087;-71
2022/03/16 02:49:17;;;;;;;26.23;19.15;;;10.10;99.90;;;;;;5055747;28;20021;-71
2022/03/16 02:51:43;;;;;;;26.40;18.13;;;10.10;99.90;;;;;;5056148;28;20021;-74
2022/03/16 02:54:09;;;;;;;25.55;17.73;;;10.00;99.90;;;;;;5056630;28;20060;-72
2022/03/16 02:56:34;;;;;;;28.95;18.25;;;9.90;99.90;;;;;;5056018;28;20025;-71
2022/03/16 02:59:02;;;;;;;25.05;16.60;;;9.90;99.90;;;;;;5056351;28;20040;-72
2022/03/16 03:01:29;;;;;;;24.05;17.08;;;9.80;99.90;;;;;;5055983;28;20032;-73
2022/03/16 03:03:55;;;;;;;30.50;18.00;;;9.80;99.90;;;;;;5055870;28;20052;-72
2022/03/16 03:06:21;;;;;;;26.33;17.92;;;9.80;99.90;;;;;;5055543;28;20573;-73
2022/03/16 03:08:48;;;;;;;25.38;16.98;;;9.70;99.90;;;;;;5056095;28;20029;-73
2022/03/16 03:11:14;;;;;;;27.98;18.20;;;9.70;99.90;;;;;;5055809;28;20025;-72
2022/03/16 03:13:39;;;;;;;30.42;19.05;;;9.70;99.90;;;;;;5055704;28;20029;-72
2022/03/16 03:16:05;;;;;;;27.67;17.50;;;9.70;99.90;;;;;;5056267;28;20063;-71
2022/03/16 03:18:31;;;;;;;30.23;18.15;;;9.80;99.90;;;;;;5056212;28;20021;-75
2022/03/16 03:20:56;;;;;;;24.00;16.77;;;9.90;99.90;;;;;;5055617;28;20033;-72
2022/03/16 03:23:22;;;;;;;30.45;18.65;;;9.90;99.90;;;;;;5055523;28;20116;-73
2022/03/16 03:25:48;;;;;;;27.27;18.90;;;9.90;99.90;;;;;;5056044;28;20078;-72
2022/03/16 03:28:15;;;;;;;31.60;19.65;;;9.90;99.90;;;;;;5055498;28;20025;-73
2022/03/16 03:30:40;;;;;;;26.80;18.33;;;9.90;99.90;;;;;;5055456;28;20485;-73
2022/03/16 03:33:07;;;;;;;24.98;17.05;;;9.90;99.90;;;;;;5055451;28;20087;-74
2022/03/16 03:35:32;;;;;;;26.98;17.48;;;9.90;99.90;;;;;;5055340;28;20519;-72
2022/03/16 03:37:58;;;;;;;26.88;17.20;;;9.90;99.90;;;;;;5055287;28;20036;-73
2022/03/16 03:40:24;;;;;;;23.50;15.57;;;9.90;99.90;;;;;;5055548;28;20035;-72
2022/03/16 03:42:51;;;;;;;28.75;17.42;;;9.90;99.90;;;;;;5055103;28;20025;-73
2022/03/16 03:45:17;;;;;;;32.78;18.45;;;9.80;99.90;;;;;;5055371;28;20434;-72
2022/03/16 03:47:42;;;;;;;28.65;16.58;;;9.80;99.90;;;;;;5055099;28;20056;-74
2022/03/16 03:50:08;;;;;;;25.88;16.80;;;9.90;99.90;;;;;;5055344;28;20430;-72
2022/03/16 03:52:34;;;;;;;24.25;16.20;;;10.00;99.90;;;;;;5055336;28;20032;-74
2022/03/16 03:55:00;;;;;;;29.17;16.50;;;10.10;99.90;;;;;;5055300;28;20025;-72
2022/03/16 03:57:25;;;;;;;24.92;16.40;;;10.10;99.90;;;;;;5055211;28;20040;-73
2022/03/16 03:59:51;;;;;;;24.02;15.88;;;10.10;99.90;;;;;;5054276;28;20381;-73
2022/03/16 04:02:17;;;;;;;25.15;15.63;;;10.10;99.90;;;;;;5054865;28;20032;-73
2022/03/16 04:04:42;;;;;;;25.90;15.23;;;10.10;99.90;;;;;;5054504;28;20052;-74
2022/03/16 04:07:08;;;;;;;25.73;16.15;;;10.10;99.90;;;;;;5055346;28;20029;-71
2022/03/16 04:09:33;;;;;;;23.50;16.13;;;10.20;99.90;;;;;;5054721;28;20021;-72
2022/03/16 04:11:59;;;;;;;26.80;17.45;;;10.20;99.90;;;;;;5054885;28;20473;-71
2022/03/16 04:14:25;;;;;;;22.88;16.30;;;10.10;99.90;;;;;;5054892;28;20025;-74
2022/03/16 04:16:50;;;;;;;22.63;15.15;;;9.90;99.90;;;;;;5054852;28;20029;-75
2022/03/16 04:19:16;;;;;;;25.60;15.95;;;9.80;99.90;;;;;;5054794;28;20032;-73
2022/03/16 04:21:42;;;;;;;30.38;15.93;;;9.80;99.90;;;;;;5054743;28;20508;-71
2022/03/16 04:24:08;;;;;;;28.60;17.10;;;9.90;99.90;;;;;;5036494;28;20025;-73
2022/03/16 04:26:34;;;;;;;26.20;16.60;;;9.80;99.90;;;;;;5054360;28;20071;-75
2022/03/16 04:28:59;;;;;;;26.15;16.55;;;9.80;99.90;;;;;;5054549;28;20021;-73
2022/03/16 04:31:25;;;;;;;28.52;16.45;;;9.90;99.90;;;;;;5054824;28;20082;-74
2022/03/16 04:33:52;;;;;;;24.25;15.45;;;9.80;99.90;;;;;;5054553;28;20048;-75
2022/03/16 04:36:18;;;;;;;21.90;14.93;;;9.90;99.90;;;;;;5054154;28;20033;-71
2022/03/16 04:38:43;;;;;;;21.00;14.48;;;9.90;99.90;;;;;;5054437;28;20024;-74
2022/03/16 04:41:10;;;;;;;24.90;15.60;;;9.90;99.90;;;;;;5054084;28;20029;-73
2022/03/16 04:43:35;;;;;;;24.60;14.05;;;9.90;99.90;;;;;;5035834;28;20034;-71
2022/03/16 04:46:01;;;;;;;26.40;15.05;;;10.00;99.90;;;;;;5054004;28;20025;-72
2022/03/16 04:48:27;;;;;;;19.70;11.43;;;10.10;99.90;;;;;;5053984;28;20021;-74
2022/03/16 04:50:52;;;;;;;22.48;11.07;;;10.30;99.90;;;;;;5054187;28;20363;-73
2022/03/16 04:53:18;;;;;;;19.20;11.10;;;10.50;99.90;;;;;;5054170;28;20495;-75
2022/03/16 04:55:44;;;;;;;20.08;10.48;;;10.70;99.90;;;;;;5053910;28;20104;-73
2022/03/16 04:58:10;;;;;;;20.95;10.80;;;10.80;99.90;;;;;;5053824;28;20025;-72
2022/03/16 05:00:37;;;;;;;19.23;10.10;;;11.00;99.90;;;;;;5054040;28;20035;-73
2022/03/16 05:03:03;;;;;;;16.25;9.13;;;11.10;99.90;;;;;;5053940;28;20049;-71
2022/03/16 05:05:29;;;;;;;18.08;9.75;;;11.10;99.90;;;;;;5053629;28;20041;-73
2022/03/16 05:07:56;;;;;;;20.85;9.60;;;11.20;99.90;;;;;;5053918;28;20424;-72
2022/03/16 05:10:22;;;;;;;19.60;9.50;;;11.30;99.90;;;;;;5053778;28;20063;-74
2022/03/16 05:12:48;;;;;;;19.83;10.60;;;11.30;99.90;;;;;;5054156;28;20017;-74
2022/03/16 05:15:15;;;;;;;16.90;9.10;;;11.30;99.90;;;;;;5053741;28;20029;-73
2022/03/16 05:17:41;;;;;;;17.50;8.73;;;11.40;99.90;;;;;;5053463;28;20465;-74
2022/03/16 05:20:08;;;;;;;18.85;9.80;;;11.40;99.90;;;;;;5053460;28;20107;-70
2022/03/16 05:22:45;;;;;;;15.88;9.13;;;11.50;99.90;;;;;;5053298;28;20021;-74
2022/03/16 05:25:17;;;;;;;18.98;8.80;;;11.50;99.90;;;;;;5053722;28;20025;-72
2022/03/16 05:27:43;;;;;;;19.83;9.85;;;11.40;99.90;;;;;;5053314;28;20053;-72
2022/03/16 05:30:10;;;;;;;19.13;10.13;;;11.40;99.90;;;;;;5053326;28;20516;-72
2022/03/16 05:32:36;;;;;;;13.68;8.95;;;11.40;99.90;;;;;;5053270;28;20017;-73
2022/03/16 05:35:03;;;;;;;19.73;9.07;;;11.40;99.90;;;;;;5053516;28;20025;-72
2022/03/16 05:37:28;;;;;;;22.15;9.77;;;11.40;99.90;;;;;;5053204;28;20032;-71
2022/03/16 05:39:54;;;;;;;17.58;9.63;;;11.40;99.90;;;;;;5053143;28;20025;-72
2022/03/16 05:42:20;;;;;;;18.15;9.75;;;11.40;99.90;;;;;;5053112;28;20036;-74
2022/03/16 05:44:45;;;;;;;16.15;8.80;;;11.30;99.90;;;;;;5053074;28;20020;-74
2022/03/16 05:47:11;;;;;;;17.83;10.07;;;11.30;99.90;;;;;;5035287;28;20028;-74
2022/03/16 05:49:38;;;;;;;14.02;8.60;;;11.30;99.90;;;;;;5053055;28;20029;-73
2022/03/16 05:52:04;;;;;;;15.88;9.18;;;11.30;99.90;;;;;;5053031;28;20033;-73
2022/03/16 05:54:30;;;;;;;20.25;9.15;;;11.30;99.90;;;;;;5053225;28;20021;-73
2022/03/16 05:56:55;;;;;;;16.08;9.27;;;11.20;99.90;;;;;;5053284;28;20036;-71
2022/03/16 05:59:21;;;;;;;22.27;10.40;;;11.20;99.90;;;;;;5052986;28;20505;-73
2022/03/16 06:01:47;;;;;;;14.70;9.23;;;11.30;99.90;;;;;;5053270;28;20029;-72
2022/03/16 06:04:12;;;;;;;19.40;8.82;;;11.30;99.90;;;;;;5052884;28;20029;-73
2022/03/16 06:06:38;;;;;;;15.20;9.00;;;11.20;99.90;;;;;;5052700;28;20413;-73
2022/03/16 06:09:04;;;;;;;19.42;10.02;;;11.20;99.90;;;;;;5053163;28;20022;-73
2022/03/16 06:11:30;;;;;;;18.27;9.15;;;11.30;99.90;;;;;;5052865;28;20527;-71
2022/03/16 06:13:56;;;;;;;15.15;8.27;;;11.30;99.90;;;;;;5052883;28;20100;-75
2022/03/16 06:16:22;;;;;;;19.90;8.93;;;11.30;99.90;;;;;;5053025;28;20049;-73
2022/03/16 06:18:48;;;;;;;17.85;9.27;;;11.30;99.90;;;;;;5034994;28;20082;-73
2022/03/16 06:21:14;;;;;;;18.33;9.10;;;11.30;99.90;;;;;;5034940;28;20044;-72
2022/03/16 06:23:40;;;;;;;20.45;9.20;;;11.20;99.90;;;;;;5055054;28;20047;-71
2022/03/16 06:26:06;;;;;;;15.85;9.10;;;11.20;99.90;;;;;;5056617;28;20025;-72
2022/03/16 06:28:32;;;;;;;15.60;8.70;;;11.10;99.90;;;;;;5056642;28;20092;-72
2022/03/16 06:30:57;;;;;;;15.20;10.10;;;11.10;99.90;;;;;;5056580;28;20025;-76
2022/03/16 06:33:23;;;;;;;19.35;9.10;;;11.00;99.90;;;;;;5057054;28;20070;-73
2022/03/16 06:35:49;;;;;;;16.92;9.57;;;11.00;99.90;;;;;;5056492;28;20084;-73
2022/03/16 06:38:14;;;;;;;16.48;9.85;;;10.90;99.90;;;;;;5056421;28;20021;-75
2022/03/16 06:40:40;;;;;;;21.48;9.95;;;11.00;99.90;;;;;;5056677;28;20033;-74
2022/03/16 06:43:07;;;;;;;19.38;10.13;;;10.90;99.90;;;;;;5056259;28;20386;-73
2022/03/16 06:45:32;;;;;;;24.85;11.65;;;11.00;99.90;;;;;;5056288;28;20103;-72
2022/03/16 06:48:00;;;;;;;20.50;10.13;;;11.10;99.90;;;;;;5056323;28;20065;-71
2022/03/16 06:50:26;;;;;;;21.48;10.38;;;11.10;99.90;;;;;;5056206;28;20021;-73
2022/03/16 06:52:56;;;;;;;19.80;10.32;;;11.10;99.90;;;;;;5056195;28;20017;-76
2022/03/16 06:55:22;;;;;;;18.00;9.80;;;11.10;99.90;;;;;;5056471;28;20131;-74
2022/03/16 06:57:47;;;;;;;17.23;9.77;;;11.10;99.90;;;;;;5056139;28;20063;-73
2022/03/16 07:00:14;;;;;;;16.42;9.98;;;11.10;99.90;;;;;;5056355;28;20017;-73
2022/03/16 07:02:50;;;;;;;28.48;9.70;;;11.20;99.90;;;;;;5056012;28;20023;-73
2022/03/16 07:05:16;;;;;;;16.55;9.52;;;11.10;99.90;;;;;;5056127;28;20456;-74
2022/03/16 07:07:41;;;;;;;18.55;10.40;;;11.20;99.90;;;;;;5055904;28;20032;-73
2022/03/16 07:10:07;;;;;;;23.25;9.98;;;11.10;99.90;;;;;;5056110;28;20095;-73
2022/03/16 07:12:33;;;;;;;19.10;10.63;;;11.20;99.90;;;;;;5055768;28;20029;-72
2022/03/16 07:14:58;;;;;;;18.35;9.88;;;11.20;99.90;;;;;;5055751;28;20082;-72
2022/03/16 07:17:24;;;;;;;18.42;10.00;;;11.20;99.90;;;;;;5055731;28;20502;-72
2022/03/16 07:19:50;;;;;;;17.80;9.65;;;11.20;99.90;;;;;;5055662;28;20028;-73
2022/03/16 07:22:15;;;;;;;21.30;10.85;;;11.20;99.90;;;;;;5055913;28;20032;-72
2022/03/16 07:24:41;;;;;;;19.13;10.40;;;11.20;99.90;;;;;;5055499;28;20528;-72
2022/03/16 07:27:07;;;;;;;17.70;9.85;;;11.20;99.90;;;;;;5056086;28;20013;-74
2022/03/16 07:29:33;;;;;;;16.25;10.13;;;11.20;99.90;;;;;;5055500;28;20502;-72
2022/03/16 07:31:59;;;;;;;18.83;10.40;;;11.30;99.90;;;;;;5055410;28;20021;-73
2022/03/16 07:34:26;;;;;;;16.80;11.05;;;11.30;99.90;;;;;;5053859;28;20032;-73
2022/03/16 07:36:53;;;;;;;17.05;9.80;;;11.30;99.90;;;;;;5055344;28;20048;-72
2022/03/16 07:39:19;;;;;;;20.33;10.85;;;11.30;99.90;;;;;;5055869;28;20033;-72
2022/03/16 07:41:44;;;;;;;17.17;10.35;;;11.30;99.90;;;;;;5055256;28;20017;-73
2022/03/16 07:44:10;;;;;;;19.20;10.25;;;11.30;99.90;;;;;;5055396;28;20055;-72
2022/03/16 07:46:36;;;;;;;23.20;10.43;;;11.40;99.90;;;;;;5055163;28;20017;-73
2022/03/16 07:49:02;;;;;;;18.45;10.52;;;11.40;99.90;;;;;;5055389;28;20044;-73
2022/03/16 07:51:28;;;;;;;19.45;9.65;;;11.40;99.90;;;;;;5055107;28;20150;-73
2022/03/16 07:53:53;;;;;;;15.18;9.20;;;11.40;99.90;;;;;;5055061;28;20509;-73
2022/03/16 07:56:20;;;;;;;19.95;10.65;;;11.40;99.90;;;;;;5054972;28;20032;-72
2022/03/16 07:58:45;;;;;;;21.17;11.43;;;11.40;99.90;;;;;;5054938;28;20086;-72
2022/03/16 08:01:11;;;;;;;15.55;9.57;;;11.50;99.90;;;;;;5054937;28;20025;-72
2022/03/16 08:03:37;;;;;;;16.15;9.95;;;11.50;99.90;;;;;;5055035;28;20033;-72
2022/03/16 08:06:03;;;;;;;16.95;9.90;;;11.50;99.90;;;;;;5061902;28;20041;-72
2022/03/16 08:08:29;;;;;;;19.70;9.77;;;11.50;99.90;;;;;;5074804;28;20074;-72
2022/03/16 08:10:55;;;;;;;25.05;11.00;;;11.60;99.90;;;;;;5075266;28;20016;-72
2022/03/16 08:13:21;;;;;;;21.98;9.95;;;11.60;99.90;;;;;;5074680;28;20025;-72
2022/03/16 08:15:46;;;;;;;21.33;10.10;;;11.60;99.90;;;;;;5075155;28;20035;-73
2022/03/16 08:18:12;;;;;;;17.65;10.68;;;11.70;99.90;;;;;;5074579;28;20558;-72
2022/03/16 08:20:38;;;;;;;16.60;10.95;;;11.60;99.90;;;;;;5074781;28;20021;-72
2022/03/16 08:23:04;;;;;;;17.55;11.02;;;11.60;99.90;;;;;;5074943;28;20021;-72
2022/03/16 08:25:30;;;;;;;17.67;11.10;;;11.60;99.90;;;;;;5073121;28;20078;-72
2022/03/16 08:27:56;;;;;;;19.20;11.30;;;11.60;99.90;;;;;;5074629;28;20465;-72
2022/03/16 08:30:21;;;;;;;16.73;10.40;;;11.60;99.90;;;;;;5074285;28;20023;-73
2022/03/16 08:32:47;;;;;;;21.17;11.27;;;11.60;99.90;;;;;;5074277;28;20033;-72
2022/03/16 08:35:12;;;;;;;19.23;11.48;;;11.60;99.90;;;;;;5074495;28;20024;-72
2022/03/16 08:37:39;;;;;;;20.13;10.27;;;11.70;99.90;;;;;;5074472;28;20028;-72
2022/03/16 08:40:07;;;;;;;21.02;10.25;;;11.80;99.90;;;;;;5074192;28;20389;-72
2022/03/16 08:42:32;;;;;;;19.17;10.60;;;11.90;99.90;;;;;;5074440;28;20032;-73
2022/03/16 08:44:58;;;;;;;16.63;10.20;;;11.90;99.90;;;;;;5073978;28;20392;-72
2022/03/16 08:47:24;;;;;;;20.75;10.23;;;12.00;99.90;;;;;;5073653;28;20028;-70
2022/03/16 08:49:53;;;;;;;19.80;11.13;;;12.00;99.90;;;;;;5073931;28;20020;-70
2022/03/16 08:52:18;;;;;;;17.30;10.90;;;12.20;99.90;;;;;;5072642;28;20465;-69
2022/03/16 08:54:44;;;;;;;19.17;10.65;;;12.20;99.90;;;;;;5073808;28;20060;-70
2022/03/16 08:57:10;;;;;;;18.23;10.65;;;12.30;99.90;;;;;;5073754;28;20027;-70
2022/03/16 08:59:37;;;;;;;16.40;11.18;;;12.30;99.90;;;;;;5073715;28;20020;-70
2022/03/16 09:02:03;;;;;;;16.77;10.77;;;12.40;99.90;;;;;;5074272;28;20028;-71
2022/03/16 09:04:30;;;;;;;21.83;10.68;;;12.50;99.90;;;;;;5072337;28;20021;-70
2022/03/16 09:06:59;;;;;;;17.00;9.90;;;12.60;99.90;;;;;;5053964;28;20020;-71
2022/03/16 09:09:25;;;;;;;18.42;11.27;;;12.70;99.90;;;;;;5053919;28;20025;-71
2022/03/16 09:11:50;;;;;;;17.38;10.95;;;12.80;99.90;;;;;;5053587;28;20036;-70
2022/03/16 09:14:16;;;;;;;17.08;10.18;;;13.00;99.90;;;;;;5053561;28;20017;-70
2022/03/16 09:16:44;;;;;;;16.70;9.38;;;13.10;99.90;;;;;;5053459;28;20384;-69
2022/03/16 09:19:10;;;;;;;18.80;10.48;;;13.20;99.90;;;;;;5035630;28;20397;-69
2022/03/16 09:21:36;;;;;;;18.75;9.70;;;13.30;99.90;;;;;;5053478;28;20035;-70
2022/03/16 09:24:01;;;;;;;17.83;10.70;;;13.20;99.90;;;;;;5053356;28;20030;-70
2022/03/16 09:26:28;;;;;;;15.20;10.20;;;13.20;99.90;;;;;;5053369;28;20032;-70
2022/03/16 09:28:55;;;;;;;18.85;9.63;;;13.10;99.90;;;;;;5053370;28;20021;-71
2022/03/16 09:31:22;;;;;;;18.40;9.40;;;13.10;99.90;;;;;;5053292;28;20029;-71
2022/03/16 09:33:48;;;;;;;16.83;9.50;;;13.00;99.90;;;;;;5053506;28;20075;-69
2022/03/16 09:36:13;;;;;;;17.67;9.27;;;13.00;99.90;;;;;;5053530;28;20033;-71
2022/03/16 09:38:39;;;;;;;16.10;8.60;;;13.20;99.90;;;;;;5053481;28;20385;-71
2022/03/16 09:41:05;;;;;;;18.95;9.90;;;13.30;99.90;;;;;;5053217;28;20059;-71
2022/03/16 09:43:33;;;;;;;19.77;9.70;;;13.50;99.90;;;;;;5053623;28;20462;-70
2022/03/16 09:46:04;;;;;;;15.40;9.10;;;13.80;99.90;;;;;;5053118;28;20104;-70
2022/03/16 09:48:31;;;;;;;18.30;9.07;;;14.00;99.90;;;;;;5052921;28;20024;-69
2022/03/16 09:50:58;;;;;;;15.70;9.18;;;14.10;99.90;;;;;;5053049;28;20027;-70
2022/03/16 09:53:28;;;;;;;16.55;9.32;;;14.10;99.90;;;;;;5052953;28;20021;-70
2022/03/16 09:55:55;;;;;;;17.73;9.75;;;14.20;99.90;;;;;;5052956;28;20474;-71
2022/03/16 09:58:20;;;;;;;16.95;9.55;;;14.20;99.90;;;;;;5054767;28;20025;-71
2022/03/16 10:00:49;;;;;;;14.15;8.77;;;14.20;99.90;;;;;;5057158;28;20488;-70
2022/03/16 10:03:16;;;;;;;14.77;9.35;;;14.20;99.90;;;;;;5057064;28;20029;-71
2022/03/16 10:05:45;;;;;;;15.23;9.48;;;14.20;99.90;;;;;;5056906;28;20053;-71
2022/03/16 10:08:14;;;;;;;16.45;10.07;;;14.40;99.90;;;;;;5057028;28;20021;-71
2022/03/16 10:13:25;;;;;;;18.48;10.45;;;14.70;99.90;;;;;;5056917;28;20086;-69
2022/03/16 10:15:52;;;;;;;16.33;8.85;;;14.80;99.90;;;;;;5056857;28;20033;-70
2022/03/16 10:18:25;;;;;;;14.13;8.20;;;14.90;99.90;;;;;;5056851;28;20021;-69
2022/03/16 10:20:52;;;;;;;16.65;9.40;;;15.10;99.90;;;;;;5057314;28;20450;-71
2022/03/16 10:23:24;;;;;;;17.80;9.77;;;15.10;99.90;;;;;;5056642;28;20366;-71
2022/03/16 10:25:52;;;;;;;14.52;8.57;;;15.20;99.90;;;;;;5056659;28;20027;-70
2022/03/16 10:28:23;;;;;;;14.48;8.32;;;15.50;99.90;;;;;;5056654;28;20108;-70
2022/03/16 10:30:57;;;;;;;19.42;8.68;;;15.60;99.90;;;;;;5056970;28;20109;-72
2022/03/16 10:33:29;;;;;;;22.30;9.75;;;15.60;99.90;;;;;;5056627;28;20054;-69
2022/03/16 10:36:15;;;;;;;15.73;8.25;;;15.70;99.90;;;;;;5056813;28;20025;-70
2022/03/16 10:38:51;;;;;;;18.33;8.70;;;15.70;99.90;;;;;;5056789;28;20033;-70
2022/03/16 10:46:51;;;;;;;16.67;8.52;;;15.50;99.90;;;;;;5056581;28;20086;-71
2022/03/16 10:49:19;;;;;;;15.50;7.53;;;15.40;99.90;;;;;;5038424;28;20021;-71
2022/03/16 10:51:45;;;;;;;18.60;9.60;;;15.40;99.90;;;;;;5056246;28;20078;-70
2022/03/16 10:54:14;;;;;;;22.77;9.07;;;15.50;99.90;;;;;;5056449;28;20033;-69
2022/03/16 10:56:40;;;;;;;18.10;7.43;;;15.50;99.90;;;;;;5056121;28;20404;-71
2022/03/16 10:59:07;;;;;;;16.42;7.22;;;15.60;99.90;;;;;;5056377;28;20161;-70
2022/03/16 11:01:38;;;;;;;19.63;9.55;;;15.70;99.90;;;;;;5056374;28;20032;-72
2022/03/16 11:04:04;;;;;;;19.35;9.32;;;15.70;99.90;;;;;;5056511;28;20028;-70
2022/03/16 11:06:31;;;;;;;21.17;9.90;;;15.90;99.90;;;;;;5055511;28;20045;-71
2022/03/16 11:08:59;;;;;;;18.88;9.32;;;16.00;99.90;;;;;;5055543;28;20096;-70
2022/03/16 11:14:12;;;;;;;14.93;7.95;;;16.10;99.90;;;;;;5055859;28;20401;-71
2022/03/16 11:16:38;;;;;;;19.35;7.68;;;16.30;99.90;;;;;;5055754;28;20051;-71
2022/03/16 11:19:05;;;;;;;13.52;6.85;;;16.40;99.90;;;;;;5055947;28;20461;-70
2022/03/16 11:21:55;;;;;;;13.52;6.75;;;16.60;99.90;;;;;;5055714;28;20025;-70
2022/03/16 11:24:23;;;;;;;20.77;6.65;;;16.70;99.90;;;;;;5037446;28;20067;-69
2022/03/16 11:27:15;;;;;;;20.58;7.93;;;16.70;99.90;;;;;;5055547;28;20025;-70
2022/03/16 11:29:59;;;;;;;19.55;10.15;;;16.60;99.90;;;;;;5056170;28;20028;-71
2022/03/16 11:32:40;;;;;;;24.52;13.45;;;16.50;99.90;;;;;;5055823;28;20017;-70
2022/03/16 11:35:12;;;;;;;15.13;7.38;;;16.30;99.90;;;;;;5056015;28;20043;-70
2022/03/16 11:37:44;;;;;;;23.45;11.07;;;16.00;99.90;;;;;;5055682;28;20473;-70
2022/03/16 11:40:14;;;;;;;21.98;9.43;;;15.90;99.90;;;;;;5055301;28;20052;-70
2022/03/16 11:43:06;;;;;;;21.63;10.13;;;15.70;99.90;;;;;;5055829;28;20107;-70
2022/03/16 11:45:36;;;;;;;23.08;11.23;;;15.60;99.90;;;;;;5055097;28;20023;-72
2022/03/16 11:48:28;;;;;;;53.85;27.05;;;15.50;99.90;;;;;;5055209;28;20022;-71
2022/03/16 11:51:09;;;;;;;21.80;15.63;;;15.30;99.90;;;;;;5037222;28;20029;-71
2022/03/16 11:56:26;;;;;;;21.38;15.50;;;15.10;99.90;;;;;;5055785;28;20120;-71
2022/03/16 11:58:54;;;;;;;19.02;12.77;;;15.10;99.90;;;;;;5054994;28;20040;-71
2022/03/16 12:01:31;;;;;;;16.77;9.13;;;14.90;99.90;;;;;;5054893;28;20481;-70
2022/03/16 12:04:15;;;;;;;17.77;9.95;;;14.70;99.90;;;;;;5055381;28;20025;-70
2022/03/16 12:06:48;;;;;;;20.20;11.40;;;14.60;99.90;;;;;;5054386;28;20045;-69
2022/03/16 12:09:20;;;;;;;17.30;10.23;;;14.50;99.90;;;;;;5054771;28;20108;-70
2022/03/16 12:15:42;;;;;;;22.40;11.25;;;14.40;99.90;;;;;;5046794;28;20394;-71
2022/03/16 12:18:14;;;;;;;16.95;8.38;;;14.40;99.90;;;;;;5048484;28;20033;-69
2022/03/16 12:20:54;;;;;;;22.60;11.80;;;14.50;99.90;;;;;;5053827;28;20561;-70
2022/03/16 12:23:43;;;;;;;22.65;9.68;;;14.50;99.90;;;;;;5055066;28;20477;-71
2022/03/16 12:26:09;;;;;;;18.08;9.45;;;14.60;99.90;;;;;;5055016;28;20025;-71
2022/03/16 12:31:19;;;;;;;17.23;9.68;;;14.70;99.90;;;;;;5054446;28;20086;-71
2022/03/16 12:33:52;;;;;;;20.20;10.30;;;14.70;99.90;;;;;;5054606;28;20025;-70
2022/03/16 12:36:40;;;;;;;16.55;8.80;;;14.60;99.90;;;;;;5054814;28;20111;-72
2022/03/16 12:39:08;;;;;;;24.42;9.07;;;14.50;99.90;;;;;;5054796;28;20021;-70
2022/03/16 12:44:19;;;;;;;17.33;9.80;;;14.30;99.90;;;;;;5054365;28;20127;-71
2022/03/16 12:46:54;;;;;;;18.48;8.63;;;14.30;99.90;;;;;;5054330;28;20025;-70
2022/03/16 12:49:21;;;;;;;15.50;7.15;;;14.30;99.90;;;;;;5054299;28;20021;-70
2022/03/16 12:51:56;;;;;;;19.17;8.82;;;14.30;99.90;;;;;;5053950;28;20025;-70
2022/03/16 12:54:31;;;;;;;20.08;8.45;;;14.30;99.90;;;;;;5054135;28;20025;-69